Airfield :
LOGIN :

Register | Disclaimer

   EN    FR    IT 

 










Legend :    VFR   Marginal VFR   IFR   Intensive IFR   Very Intensive IFR
Visi :
Ceiling :
>= 8 km
>= 3000ft
5 to 8 km
1000 to 3000 ft
1500m to 5 km
500 to 1000 ft
800 to 1500m
200 to 500 ft
< 800m
< 200 ft
Symbols :   Thunderstorms  Fog  Heavy snow  Heavy precipitations  Wind > 20 kt
SIGMETs :     Misc.  Thunderstorms  Icing  Turbulence  Mountain Waves  Volcanic Ashes






- Airport Elevation : 68 ft
- IATA code : AGH


ESTA - Ängelholm-Helsingborg

CURRENT METAR :
  • 130820Z 09007KT 9999 -RA OVC076 16/14 Q1009

EXPIRED METARs :
  • 130750Z 09009KT 9999 -RA OVC076 17/14 Q1009
  • 130720Z AUTO 10008KT 9999 OVC076/// 17/13 Q1009
  • 130650Z AUTO 10007KT 9999 OVC082/// 17/13 Q1009
  • 130620Z AUTO 11007KT 9999 -RA OVC082/// 17/13 Q1009
  • 130550Z AUTO 12008KT 9999 OVC096/// 17/12 Q1009
  • 130520Z AUTO 09010KT 9999 SCT098/// OVC120/// 18/12 Q1009
  • 130450Z AUTO 09011KT 9999 FEW100/// OVC120/// 18/12 Q1009
  • 130420Z AUTO 10010KT 9999 BKN100/// OVC130/// 18/12 Q1009
  • 130350Z AUTO 11011KT 9999 BKN086/// OVC100/// 18/12 Q1009

TAF TAF ESTA
Valid from the 13 at 08:00 until the 13 at 14:00 UTC


130735Z 1308/1314 09005KT 9999 SCT015
TEMPO 1308/1314 SHRA SCT020CB



MET'MAP, your aeronautical weather chart ! - Copyright ORBIFLY December 2007 - Disclaimer

ORBIFLY MET'MAP TEAM :

Programming & Development : Alexandra Zaïnal
Original concept : Baudouin d'Aumeries
Technical & hardware support : Manuel Goepfert
Assistance : Marc-Olivier Méhu




SOURCES & CREDITS :

   NOAA